Flugplatz Westerland Sylt

Bericht für EDXW

vom 25.09. um 19:20 UTC

Wind 2 kt aus 210°

Sichtweite 10 km oder mehr

gering bewölkt in 20000 ft

Temperatur 9.0°C

Taupunkt 6.0°C

Luftfeuchtigkeit 81%

Luftdruck 996 hPa

EDXW 251920Z AUTO 21002KT 9999 // FEW200/// 09/06 Q0996

Prognose für EDXW

vom 25.09. um 17:00 UTC

Zwischen 18:00 UTC und 21:00 UTC

Wind 4 kt aus 220°

Sichtweite 10 km oder mehr

keine signifikanten Wettererscheinungen

keine Wolken


Zwischen 18:00 und 20:00 UTC übergehend zu

Wind 5 kt aus 290°

Sichtweite 10 km oder mehr

keine signifikanten Wettererscheinungen

keine Wolken

TAF EDXW 251700Z 2518/2521 22004KT CAVOK BECMG 2518/2520 29005KT
Impressum